Time,TemperatureF,DewpointF,PressureIn,WindDirection,WindDirectionDegrees,WindSpeedMPH,WindSpeedGustMPH,Humidity,HourlyPrecipIn,Conditions,Clouds,dailyrainin,SolarRadiationWatts/m^2,SoftwareType,DateUTC
2013-01-01 00:00:00,33.1,20.4,29.90,WSW,242,6.0,7.0,59,0.00,,---,0.00,0.00,VWS V14.00,2013-01-01 05:00:00,
2013-01-01 00:01:00,33.2,20.4,29.90,SSW,204,2.0,7.0,59,0.00,,---,0.00,0.00,VWS V14.00,2013-01-01 05:01:00,
2013-01-01 00:06:00,33.1,20.7,29.90,SSW,200,2.0,2.0,60,0.00,,---,0.00,0.00,VWS V14.00,2013-01-01 05:06:00,
2013-01-01 00:11:00,33.2,20.4,29.90,South,173,5.0,5.0,59,0.00,,---,0.00,0.00,VWS V14.00,2013-01-01 05:11:00,
2013-01-01 00:16:00,33.2,20.8,29.89,South,183,5.0,10.0,60,0.00,,---,0.00,0.00,VWS V14.00,2013-01-01 05:16:00,
2013-01-01 00:21:00,33.4,21.0,29.89,SW,222,0.0,2.0,60,0.00,,---,0.00,0.00,VWS V14.00,2013-01-01 05:21:00,
2013-01-01 00:26:00,33.4,21.0,29.89,South,171,7.0,11.0,60,0.00,,---,0.00,0.00,VWS V14.00,2013-01-01 05:26:00,
2013-01-01 00:31:00,33.5,21.5,29.89,WSW,247,6.0,6.0,61,0.00,,---,0.00,0.00,VWS V14.00,2013-01-01 05:31:00,
2013-01-01 00:36:00,33.7,21.3,29.89,West,269,7.0,9.0,60,0.00,,---,0.00,0.00,VWS V14.00,2013-01-01 05:36:00,
2013-01-01 00:41:00,33.7,21.3,29.88,WSW,248,3.0,4.0,60,0.00,,---,0.00,0.00,VWS V14.00,2013-01-01 05:41:00,
2013-01-01 00:46:00,33.7,21.3,29.88,West,262,4.0,7.0,60,0.00,,---,0.00,0.00,VWS V14.00,2013-01-01 05:46:00,
2013-01-01 00:51:00,33.7,21.7,29.89,WSW,246,4.0,5.0,61,0.00,,---,0.00,0.00,VWS V14.00,2013-01-01 05:51:00,
2013-01-01 00:56:00,33.7,21.7,29.89,West,265,0.0,3.0,61,0.00,,---,0.00,0.00,VWS V14.00,2013-01-01 05:56:00,
2013-01-01 01:01:00,33.7,21.7,29.88,WNW,295,5.0,6.0,61,0.00,,---,0.00,0.00,VWS V14.00,2013-01-01 06:01:00,
2013-01-01 01:06:00,33.8,22.2,29.89,SW,227,2.0,4.0,62,0.00,,---,0.00,0.00,VWS V14.00,2013-01-01 06:06:00,
2013-01-01 01:11:00,34.0,22.4,29.89,SSW,207,6.0,6.0,62,0.00,,---,0.00,0.00,VWS V14.00,2013-01-01 06:11:00,
2013-01-01 01:16:00,34.0,22.4,29.88,SW,230,3.0,5.0,62,0.00,,---,0.00,0.00,VWS V14.00,2013-01-01 06:16:00,
2013-01-01 01:21:00,34.1,22.5,29.89,WSW,245,3.0,5.0,62,0.00,,---,0.00,0.00,VWS V14.00,2013-01-01 06:21:00,
2013-01-01 01:26:00,34.3,22.6,29.89,WNW,301,6.0,6.0,62,0.00,,---,0.00,0.00,VWS V14.00,2013-01-01 06:26:00,
2013-01-01 01:31:00,34.3,22.6,29.89,SW,236,2.0,2.0,62,0.00,,---,0.00,0.00,VWS V14.00,2013-01-01 06:31:00,
2013-01-01 01:36:00,34.4,22.7,29.89,SW,234,0.0,3.0,62,0.00,,---,0.00,0.00,VWS V14.00,2013-01-01 06:36:00,
2013-01-01 01:41:00,34.4,23.1,29.88,SW,234,5.0,6.0,63,0.00,,---,0.00,0.00,VWS V14.00,2013-01-01 06:41:00,
2013-01-01 01:46:00,34.4,23.1,29.89,SSW,207,0.0,4.0,63,0.00,,---,0.00,0.00,VWS V14.00,2013-01-01 06:46:00,
2013-01-01 01:51:00,34.6,23.3,29.89,WSW,258,4.0,4.0,63,0.00,,---,0.00,0.00,VWS V14.00,2013-01-01 06:51:00,
2013-01-01 01:56:00,34.6,23.3,29.90,West,263,4.0,6.0,63,0.00,,---,0.00,0.00,VWS V14.00,2013-01-01 06:56:00,
2013-01-01 02:01:00,34.6,23.7,29.89,WNW,294,10.0,10.0,64,0.00,,---,0.00,0.00,VWS V14.00,2013-01-01 07:01:00,
2013-01-01 02:06:00,34.6,23.7,29.89,West,281,3.0,6.0,64,0.00,,---,0.00,0.00,VWS V14.00,2013-01-01 07:06:00,
2013-01-01 02:11:00,34.6,23.7,29.90,West,277,8.0,8.0,64,0.00,,---,0.00,0.00,VWS V14.00,2013-01-01 07:11:00,
2013-01-01 02:16:00,34.6,23.7,29.90,West,272,1.0,2.0,64,0.00,,---,0.00,0.00,VWS V14.00,2013-01-01 07:16:00,
2013-01-01 02:21:00,34.7,23.8,29.90,WSW,252,3.0,5.0,64,0.00,,---,0.00,0.00,VWS V14.00,2013-01-01 07:21:00,
2013-01-01 02:26:00,34.7,23.8,29.89,SW,219,4.0,5.0,64,0.00,,---,0.00,0.00,VWS V14.00,2013-01-01 07:26:00,
2013-01-01 02:31:00,34.9,24.0,29.89,WNW,286,4.0,4.0,64,0.00,,---,0.00,0.00,VWS V14.00,2013-01-01 07:31:00,
2013-01-01 02:36:00,34.7,23.8,29.89,WNW,286,1.0,3.0,64,0.00,,---,0.00,0.00,VWS V14.00,2013-01-01 07:36:00,
2013-01-01 02:41:00,34.6,24.1,29.88,WSW,240,7.0,7.0,65,0.00,,---,0.00,0.00,VWS V14.00,2013-01-01 07:41:00,
2013-01-01 02:46:00,34.3,23.8,29.88,WNW,288,5.0,5.0,65,0.00,,---,0.00,0.00,VWS V14.00,2013-01-01 07:46:00,
2013-01-01 02:51:00,34.1,23.6,29.88,SW,236,6.0,10.0,65,0.00,,---,0.00,0.00,VWS V14.00,2013-01-01 07:51:00,
2013-01-01 02:56:00,34.1,23.6,29.88,WSW,244,2.0,2.0,65,0.00,,---,0.00,0.00,VWS V14.00,2013-01-01 07:56:00,
2013-01-01 03:01:00,34.3,24.1,29.88,WSW,258,4.0,7.0,66,0.00,,---,0.00,0.00,VWS V14.00,2013-01-01 08:01:00,
2013-01-01 03:06:00,34.1,24.0,29.88,West,276,3.0,6.0,66,0.00,,---,0.00,0.00,VWS V14.00,2013-01-01 08:06:00,
2013-01-01 03:11:00,34.0,23.9,29.88,West,278,0.0,0.0,66,0.00,,---,0.00,0.00,VWS V14.00,2013-01-01 08:11:00,
2013-01-01 03:16:00,34.0,23.9,29.88,WSW,252,1.0,2.0,66,0.00,,---,0.00,0.00,VWS V14.00,2013-01-01 08:16:00,
2013-01-01 03:21:00,34.1,24.0,29.88,West,269,2.0,5.0,66,0.00,,---,0.00,0.00,VWS V14.00,2013-01-01 08:21:00,
2013-01-01 03:26:00,34.1,24.3,29.88,SW,223,10.0,10.0,67,0.00,,---,0.00,0.00,VWS V14.00,2013-01-01 08:26:00,
2013-01-01 03:31:00,34.1,24.3,29.88,NW,310,7.0,9.0,67,0.00,,---,0.00,0.00,VWS V14.00,2013-01-01 08:31:00,
2013-01-01 03:36:00,34.1,24.3,29.89,SE,133,7.0,7.0,67,0.00,,---,0.00,0.00,VWS V14.00,2013-01-01 08:36:00,
2013-01-01 03:41:00,34.1,24.3,29.89,SW,234,0.0,1.0,67,0.00,,---,0.00,0.00,VWS V14.00,2013-01-01 08:41:00,
2013-01-01 03:46:00,34.1,24.3,29.88,WNW,286,2.0,2.0,67,0.00,,---,0.00,0.00,VWS V14.00,2013-01-01 08:46:00,
2013-01-01 03:51:00,34.1,24.3,29.89,SW,235,2.0,3.0,67,0.00,,---,0.00,0.00,VWS V14.00,2013-01-01 08:51:00,
2013-01-01 03:56:00,34.1,24.3,29.89,West,269,3.0,3.0,67,0.00,,---,0.00,0.00,VWS V14.00,2013-01-01 08:56:00,
2013-01-01 04:01:00,34.1,24.3,29.89,West,273,1.0,1.0,67,0.00,,---,0.00,0.00,VWS V14.00,2013-01-01 09:01:00,
2013-01-01 04:06:00,34.1,24.7,29.89,WNW,294,6.0,6.0,68,0.00,,---,0.00,0.00,VWS V14.00,2013-01-01 09:06:00,
2013-01-01 04:11:00,34.3,24.5,29.89,WNW,286,10.0,12.0,67,0.00,,---,0.00,0.00,VWS V14.00,2013-01-01 09:11:00,
2013-01-01 04:16:00,34.4,24.6,29.89,West,265,6.0,10.0,67,0.00,,---,0.00,0.00,VWS V14.00,2013-01-01 09:16:00,
2013-01-01 04:21:00,34.6,24.8,29.88,West,272,9.0,11.0,67,0.00,,---,0.00,0.00,VWS V14.00,2013-01-01 09:21:00,
2013-01-01 04:26:00,34.6,24.8,29.89,WSW,246,7.0,9.0,67,0.00,,---,0.00,0.00,VWS V14.00,2013-01-01 09:26:00,
2013-01-01 04:31:00,34.6,24.8,29.89,NW,306,6.0,6.0,67,0.00,,---,0.00,0.00,VWS V14.00,2013-01-01 09:31:00,
2013-01-01 04:36:00,34.6,24.8,29.88,West,263,8.0,11.0,67,0.00,,---,0.00,0.00,VWS V14.00,2013-01-01 09:36:00,
2013-01-01 04:41:00,34.6,24.8,29.88,WNW,286,8.0,11.0,67,0.00,,---,0.00,0.00,VWS V14.00,2013-01-01 09:41:00,
2013-01-01 04:46:00,34.7,24.9,29.88,WNW,284,3.0,6.0,67,0.00,,---,0.00,0.00,VWS V14.00,2013-01-01 09:46:00,
2013-01-01 04:51:00,34.7,24.9,29.89,SW,227,4.0,4.0,67,0.00,,---,0.00,0.00,VWS V14.00,2013-01-01 09:51:00,
2013-01-01 04:56:00,34.6,25.1,29.89,WSW,245,6.0,6.0,68,0.00,,---,0.00,0.00,VWS V14.00,2013-01-01 09:56:00,
2013-01-01 05:01:00,34.6,24.8,29.89,West,267,3.0,5.0,67,0.00,,---,0.00,0.00,VWS V14.00,2013-01-01 10:01:00,
2013-01-01 05:06:00,34.7,24.9,29.89,WNW,288,7.0,7.0,67,0.00,,---,0.00,0.00,VWS V14.00,2013-01-01 10:06:00,
2013-01-01 05:11:00,34.7,24.9,29.89,WSW,238,5.0,6.0,67,0.00,,---,0.00,0.00,VWS V14.00,2013-01-01 10:11:00,
2013-01-01 05:16:00,34.7,24.9,29.88,WNW,289,3.0,4.0,67,0.00,,---,0.00,0.00,VWS V14.00,2013-01-01 10:16:00,
2013-01-01 05:21:00,34.6,24.8,29.88,WSW,257,3.0,3.0,67,0.00,,---,0.00,0.00,VWS V14.00,2013-01-01 10:21:00,
2013-01-01 05:26:00,34.6,24.8,29.88,West,275,6.0,6.0,67,0.00,,---,0.00,0.00,VWS V14.00,2013-01-01 10:26:00,
2013-01-01 05:31:00,34.6,24.8,29.88,West,261,3.0,3.0,67,0.00,,---,0.00,0.00,VWS V14.00,2013-01-01 10:31:00,
2013-01-01 05:36:00,34.7,24.9,29.88,West,269,5.0,5.0,67,0.00,,---,0.00,0.00,VWS V14.00,2013-01-01 10:36:00,
2013-01-01 05:41:00,34.7,24.9,29.88,WNW,285,6.0,6.0,67,0.00,,---,0.00,0.00,VWS V14.00,2013-01-01 10:41:00,
2013-01-01 05:46:00,34.7,25.2,29.88,West,271,5.0,5.0,68,0.00,,---,0.00,0.00,VWS V14.00,2013-01-01 10:46:00,
2013-01-01 05:51:00,34.6,24.8,29.88,West,273,7.0,7.0,67,0.00,,---,0.00,0.00,VWS V14.00,2013-01-01 10:51:00,
2013-01-01 05:56:00,34.7,24.9,29.88,WSW,244,0.0,0.0,67,0.00,,---,0.00,0.00,VWS V14.00,2013-01-01 10:56:00,
2013-01-01 06:01:00,34.7,25.2,29.88,WNW,301,4.0,6.0,68,0.00,,---,0.00,0.00,VWS V14.00,2013-01-01 11:01:00,
2013-01-01 06:06:00,34.7,24.9,29.88,WSW,244,14.0,14.0,67,0.00,,---,0.00,0.00,VWS V14.00,2013-01-01 11:06:00,
2013-01-01 06:11:00,34.7,25.2,29.88,WNW,302,4.0,5.0,68,0.00,,---,0.00,0.00,VWS V14.00,2013-01-01 11:11:00,
2013-01-01 06:16:00,34.7,24.9,29.89,WNW,282,6.0,7.0,67,0.00,,---,0.00,0.00,VWS V14.00,2013-01-01 11:16:00,
2013-01-01 06:21:00,34.7,24.9,29.89,West,275,5.0,5.0,67,0.00,,---,0.00,0.00,VWS V14.00,2013-01-01 11:21:00,
2013-01-01 06:26:00,34.7,25.2,29.89,WSW,250,3.0,4.0,68,0.00,,---,0.00,0.00,VWS V14.00,2013-01-01 11:26:00,
2013-01-01 06:31:00,34.7,24.9,29.90,NW,318,6.0,6.0,67,0.00,,---,0.00,0.00,VWS V14.00,2013-01-01 11:31:00,
2013-01-01 06:36:00,34.9,25.1,29.89,WNW,295,4.0,6.0,67,0.00,,---,0.00,0.00,VWS V14.00,2013-01-01 11:36:00,
2013-01-01 06:41:00,34.9,25.1,29.89,WNW,292,6.0,9.0,67,0.00,,---,0.00,0.00,VWS V14.00,2013-01-01 11:41:00,
2013-01-01 06:46:00,34.9,25.4,29.89,NW,317,4.0,5.0,68,0.00,,---,0.00,0.00,VWS V14.00,2013-01-01 11:46:00,
2013-01-01 06:51:00,34.7,25.2,29.89,West,280,4.0,5.0,68,0.00,,---,0.00,0.00,VWS V14.00,2013-01-01 11:51:00,
2013-01-01 06:56:00,34.7,25.2,29.89,WNW,284,4.0,4.0,68,0.00,,---,0.00,0.00,VWS V14.00,2013-01-01 11:56:00,
2013-01-01 07:01:00,34.7,25.2,29.89,West,273,3.0,3.0,68,0.00,,---,0.00,0.00,VWS V14.00,2013-01-01 12:01:00,
2013-01-01 07:06:00,34.6,25.1,29.89,West,269,5.0,6.0,68,0.00,,---,0.00,0.00,VWS V14.00,2013-01-01 12:06:00,
2013-01-01 07:11:00,34.6,25.1,29.89,West,260,4.0,4.0,68,0.00,,---,0.00,0.00,VWS V14.00,2013-01-01 12:11:00,
2013-01-01 07:16:00,34.7,25.2,29.89,NW,304,4.0,4.0,68,0.00,,---,0.00,0.00,VWS V14.00,2013-01-01 12:16:00,
2013-01-01 07:21:00,34.6,25.1,29.89,WNW,285,5.0,5.0,68,0.00,,---,0.00,0.00,VWS V14.00,2013-01-01 12:21:00,
2013-01-01 07:26:00,34.6,25.1,29.90,West,260,4.0,5.0,68,0.00,,---,0.00,0.00,VWS V14.00,2013-01-01 12:26:00,
2013-01-01 07:31:00,34.6,25.1,29.91,West,281,6.0,6.0,68,0.00,,---,0.00,0.00,VWS V14.00,2013-01-01 12:31:00,
2013-01-01 07:36:00,34.6,25.1,29.90,WSW,258,3.0,3.0,68,0.00,,---,0.00,7.00,VWS V14.00,2013-01-01 12:36:00,
2013-01-01 07:41:00,34.6,25.1,29.90,West,281,5.0,5.0,68,0.00,,---,0.00,7.00,VWS V14.00,2013-01-01 12:41:00,
2013-01-01 07:46:00,34.6,25.1,29.90,West,274,5.0,6.0,68,0.00,,---,0.00,16.00,VWS V14.00,2013-01-01 12:46:00,
2013-01-01 07:51:00,34.6,25.1,29.90,West,271,4.0,5.0,68,0.00,,---,0.00,18.00,VWS V14.00,2013-01-01 12:51:00,
2013-01-01 07:56:00,34.4,25.0,29.90,West,272,2.0,2.0,68,0.00,,---,0.00,21.00,VWS V14.00,2013-01-01 12:56:00,
2013-01-01 08:01:00,34.4,25.0,29.90,West,279,3.0,3.0,68,0.00,,---,0.00,26.00,VWS V14.00,2013-01-01 13:01:00,
2013-01-01 08:06:00,34.4,25.0,29.90,WNW,295,3.0,3.0,68,0.00,,---,0.00,32.00,VWS V14.00,2013-01-01 13:06:00,
2013-01-01 08:11:00,34.3,24.9,29.91,West,279,3.0,3.0,68,0.00,,---,0.00,30.00,VWS V14.00,2013-01-01 13:11:00,
2013-01-01 08:16:00,34.3,24.5,29.91,WNW,299,3.0,3.0,67,0.00,,---,0.00,32.00,VWS V14.00,2013-01-01 13:16:00,
2013-01-01 08:21:00,34.3,24.5,29.91,West,261,3.0,3.0,67,0.00,,---,0.00,32.00,VWS V14.00,2013-01-01 13:21:00,
2013-01-01 08:26:00,34.3,24.1,29.91,WNW,300,2.0,10.0,66,0.00,,---,0.00,26.00,VWS V14.00,2013-01-01 13:26:00,
2013-01-01 08:31:00,34.3,24.1,29.91,West,273,4.0,5.0,66,0.00,,---,0.00,23.00,VWS V14.00,2013-01-01 13:31:00,
2013-01-01 08:36:00,34.4,23.9,29.91,West,264,6.0,6.0,65,0.00,,---,0.00,26.00,VWS V14.00,2013-01-01 13:36:00,
2013-01-01 08:41:00,34.4,23.9,29.91,WNW,302,1.0,6.0,65,0.00,,---,0.00,40.00,VWS V14.00,2013-01-01 13:41:00,
2013-01-01 08:46:00,34.4,23.9,29.92,WNW,284,7.0,8.0,65,0.00,,---,0.00,42.00,VWS V14.00,2013-01-01 13:46:00,
2013-01-01 08:51:00,34.6,23.7,29.91,WNW,290,10.0,10.0,64,0.00,,---,0.00,56.00,VWS V14.00,2013-01-01 13:51:00,
2013-01-01 08:56:00,34.7,23.4,29.91,WNW,290,6.0,6.0,63,0.00,,---,0.00,76.00,VWS V14.00,2013-01-01 13:56:00,
2013-01-01 09:01:00,34.9,22.8,29.91,West,274,3.0,8.0,61,0.00,,---,0.00,74.00,VWS V14.00,2013-01-01 14:01:00,
2013-01-01 09:06:00,35.0,22.9,29.91,WNW,285,4.0,7.0,61,0.00,,---,0.00,72.00,VWS V14.00,2013-01-01 14:06:00,
2013-01-01 09:11:00,35.0,22.9,29.91,WSW,248,6.0,8.0,61,0.00,,---,0.00,62.00,VWS V14.00,2013-01-01 14:11:00,
2013-01-01 09:16:00,35.0,22.5,29.91,WSW,255,11.0,11.0,60,0.00,,---,0.00,70.00,VWS V14.00,2013-01-01 14:16:00,
2013-01-01 09:21:00,35.2,22.7,29.92,West,269,8.0,11.0,60,0.00,,---,0.00,81.00,VWS V14.00,2013-01-01 14:21:00,
2013-01-01 09:26:00,35.2,22.7,29.91,West,261,7.0,7.0,60,0.00,,---,0.00,107.00,VWS V14.00,2013-01-01 14:26:00,
2013-01-01 09:31:00,35.3,22.8,29.92,WNW,298,0.0,7.0,60,0.00,,---,0.00,113.00,VWS V14.00,2013-01-01 14:31:00,
2013-01-01 09:36:00,35.5,23.0,29.91,NW,319,7.0,14.0,60,0.00,,---,0.00,127.00,VWS V14.00,2013-01-01 14:36:00,
2013-01-01 09:41:00,35.6,22.7,29.92,WSW,244,9.0,9.0,59,0.00,,---,0.00,123.00,VWS V14.00,2013-01-01 14:41:00,
2013-01-01 09:46:00,35.6,23.1,29.92,West,273,11.0,13.0,60,0.00,,---,0.00,130.00,VWS V14.00,2013-01-01 14:46:00,
2013-01-01 09:51:00,35.8,22.9,29.92,West,270,4.0,11.0,59,0.00,,---,0.00,128.00,VWS V14.00,2013-01-01 14:51:00,
2013-01-01 09:56:00,35.8,22.9,29.93,West,276,4.0,6.0,59,0.00,,---,0.00,123.00,VWS V14.00,2013-01-01 14:56:00,
2013-01-01 10:01:00,35.8,22.9,29.92,WNW,300,8.0,11.0,59,0.00,,---,0.00,132.00,VWS V14.00,2013-01-01 15:01:00,
2013-01-01 10:06:00,35.9,23.0,29.92,West,271,5.0,7.0,59,0.00,,---,0.00,123.00,VWS V14.00,2013-01-01 15:06:00,
2013-01-01 10:11:00,35.9,22.6,29.92,NW,310,12.0,14.0,58,0.00,,---,0.00,121.00,VWS V14.00,2013-01-01 15:11:00,
2013-01-01 10:16:00,35.8,22.1,29.92,WNW,302,6.0,13.0,57,0.00,,---,0.00,128.00,VWS V14.00,2013-01-01 15:16:00,
2013-01-01 10:21:00,35.8,22.1,29.92,WNW,292,3.0,10.0,57,0.00,,---,0.00,137.00,VWS V14.00,2013-01-01 15:21:00,
2013-01-01 10:26:00,35.9,22.2,29.92,WNW,302,6.0,7.0,57,0.00,,---,0.00,137.00,VWS V14.00,2013-01-01 15:26:00,
2013-01-01 10:31:00,35.9,22.2,29.92,West,265,5.0,8.0,57,0.00,,---,0.00,153.00,VWS V14.00,2013-01-01 15:31:00,
2013-01-01 10:36:00,35.9,21.8,29.92,WNW,291,5.0,12.0,56,0.00,,---,0.00,142.00,VWS V14.00,2013-01-01 15:36:00,
2013-01-01 10:41:00,35.9,22.6,29.92,NNW,328,4.0,6.0,58,0.00,,---,0.00,179.00,VWS V14.00,2013-01-01 15:41:00,
2013-01-01 10:46:00,36.0,22.3,29.91,WNW,284,5.0,10.0,57,0.00,,---,0.00,167.00,VWS V14.00,2013-01-01 15:46:00,
2013-01-01 10:51:00,36.0,21.4,29.91,West,279,4.0,7.0,55,0.00,,---,0.00,167.00,VWS V14.00,2013-01-01 15:51:00,
2013-01-01 10:56:00,36.0,21.8,29.91,NW,306,5.0,5.0,56,0.00,,---,0.00,176.00,VWS V14.00,2013-01-01 15:56:00,
2013-01-01 11:01:00,36.2,22.0,29.91,NW,319,5.0,10.0,56,0.00,,---,0.00,174.00,VWS V14.00,2013-01-01 16:01:00,
2013-01-01 11:06:00,36.2,22.0,29.90,WNW,298,6.0,12.0,56,0.00,,---,0.00,165.00,VWS V14.00,2013-01-01 16:06:00,
2013-01-01 11:11:00,36.3,21.7,29.91,WNW,301,7.0,11.0,55,0.00,,---,0.00,199.00,VWS V14.00,2013-01-01 16:11:00,
2013-01-01 11:16:00,36.3,22.1,29.91,WNW,298,10.0,12.0,56,0.00,,---,0.00,204.00,VWS V14.00,2013-01-01 16:16:00,
2013-01-01 11:21:00,36.5,21.5,29.90,WNW,301,6.0,13.0,54,0.00,,---,0.00,192.00,VWS V14.00,2013-01-01 16:21:00,
2013-01-01 11:26:00,36.3,21.3,29.90,WSW,258,9.0,15.0,54,0.00,,---,0.00,178.00,VWS V14.00,2013-01-01 16:26:00,
2013-01-01 11:31:00,36.2,21.6,29.90,NW,312,5.0,11.0,55,0.00,,---,0.00,171.00,VWS V14.00,2013-01-01 16:31:00,
2013-01-01 11:36:00,36.2,21.6,29.90,West,269,11.0,13.0,55,0.00,,---,0.00,190.00,VWS V14.00,2013-01-01 16:36:00,
2013-01-01 11:41:00,36.2,21.6,29.90,West,273,10.0,12.0,55,0.00,,---,0.00,192.00,VWS V14.00,2013-01-01 16:41:00,
2013-01-01 11:46:00,36.2,21.6,29.89,WNW,294,11.0,18.0,55,0.00,,---,0.00,165.00,VWS V14.00,2013-01-01 16:46:00,
2013-01-01 11:51:00,36.2,21.2,29.88,West,277,5.0,11.0,54,0.00,,---,0.00,167.00,VWS V14.00,2013-01-01 16:51:00,
2013-01-01 11:56:00,36.0,20.5,29.88,NW,315,5.0,8.0,53,0.00,,---,0.00,183.00,VWS V14.00,2013-01-01 16:56:00,
2013-01-01 12:01:00,36.0,20.5,29.88,NW,322,2.0,7.0,53,0.00,,---,0.00,186.00,VWS V14.00,2013-01-01 17:01:00,
2013-01-01 12:06:00,36.2,21.6,29.88,NW,320,1.0,4.0,55,0.00,,---,0.00,199.00,VWS V14.00,2013-01-01 17:06:00,
2013-01-01 12:11:00,36.0,21.8,29.88,NW,304,4.0,11.0,56,0.00,,---,0.00,156.00,VWS V14.00,2013-01-01 17:11:00,
2013-01-01 12:16:00,35.8,21.6,29.87,WNW,298,3.0,4.0,56,0.00,,---,0.00,176.00,VWS V14.00,2013-01-01 17:16:00,
2013-01-01 12:21:00,35.6,21.9,29.87,NNW,344,8.0,12.0,57,0.00,,---,0.00,167.00,VWS V14.00,2013-01-01 17:21:00,
2013-01-01 12:26:00,35.3,21.2,29.88,NNW,335,8.0,8.0,56,0.00,,---,0.00,144.00,VWS V14.00,2013-01-01 17:26:00,
2013-01-01 12:31:00,35.2,21.1,29.87,North,360,4.0,9.0,56,0.00,,---,0.00,142.00,VWS V14.00,2013-01-01 17:31:00,
2013-01-01 12:36:00,35.0,20.9,29.88,NE,42,0.0,3.0,56,0.00,,---,0.00,163.00,VWS V14.00,2013-01-01 17:36:00,
2013-01-01 12:41:00,34.9,21.6,29.88,NNW,335,2.0,4.0,58,0.00,,---,0.00,153.00,VWS V14.00,2013-01-01 17:41:00,
2013-01-01 12:46:00,34.9,21.2,29.88,WNW,290,10.0,18.0,57,0.00,,---,0.00,132.00,VWS V14.00,2013-01-01 17:46:00,
2013-01-01 12:51:00,34.7,20.6,29.88,NW,314,4.0,6.0,56,0.00,,---,0.00,153.00,VWS V14.00,2013-01-01 17:51:00,
2013-01-01 12:56:00,34.7,20.2,29.88,NNW,328,5.0,5.0,55,0.00,,---,0.00,134.00,VWS V14.00,2013-01-01 17:56:00,
2013-01-01 13:01:00,34.6,20.1,29.88,NW,313,6.0,6.0,55,0.00,,---,0.00,163.00,VWS V14.00,2013-01-01 18:01:00,
2013-01-01 13:06:00,34.6,21.0,29.88,NNW,339,6.0,6.0,57,0.00,,---,0.00,156.00,VWS V14.00,2013-01-01 18:06:00,
2013-01-01 13:11:00,34.4,19.5,29.87,NW,317,6.0,8.0,54,0.00,,---,0.00,144.00,VWS V14.00,2013-01-01 18:11:00,
2013-01-01 13:16:00,34.3,20.2,29.87,NNW,348,4.0,10.0,56,0.00,,---,0.00,120.00,VWS V14.00,2013-01-01 18:16:00,
2013-01-01 13:21:00,34.1,19.2,29.88,NW,323,5.0,6.0,54,0.00,,---,0.00,125.00,VWS V14.00,2013-01-01 18:21:00,
2013-01-01 13:26:00,34.0,19.5,29.88,WNW,303,8.0,12.0,55,0.00,,---,0.00,134.00,VWS V14.00,2013-01-01 18:26:00,
2013-01-01 13:31:00,34.0,19.1,29.88,NW,308,2.0,6.0,54,0.00,,---,0.00,142.00,VWS V14.00,2013-01-01 18:31:00,
2013-01-01 13:35:00,34.0,18.7,29.88,WNW,303,3.0,9.0,53,0.00,,---,0.00,144.00,VWS V14.00,2013-01-01 18:35:00,
2013-01-01 13:40:00,33.8,18.9,29.88,NW,315,3.0,3.0,54,0.00,,---,0.00,148.00,VWS V14.00,2013-01-01 18:40:00,
2013-01-01 13:45:00,33.7,18.4,29.88,WNW,282,4.0,11.0,53,0.00,,---,0.00,123.00,VWS V14.00,2013-01-01 18:45:00,
2013-01-01 13:50:00,33.5,18.6,29.88,NW,318,8.0,12.0,54,0.00,,---,0.00,125.00,VWS V14.00,2013-01-01 18:50:00,
2013-01-01 13:55:00,33.7,19.3,29.88,NW,323,1.0,4.0,55,0.00,,---,0.00,135.00,VWS V14.00,2013-01-01 18:55:00,
2013-01-01 14:00:00,33.4,18.6,29.88,North,5,7.0,9.0,54,0.00,,---,0.00,132.00,VWS V14.00,2013-01-01 19:00:00,
2013-01-01 14:05:00,33.4,19.0,29.88,NW,309,3.0,4.0,55,0.00,,---,0.00,139.00,VWS V14.00,2013-01-01 19:05:00,
2013-01-01 14:10:00,33.2,18.8,29.88,North,11,3.0,7.0,55,0.00,,---,0.00,137.00,VWS V14.00,2013-01-01 19:10:00,
2013-01-01 14:15:00,33.1,18.7,29.88,NW,313,4.0,6.0,55,0.00,,---,0.00,141.00,VWS V14.00,2013-01-01 19:15:00,
2013-01-01 14:20:00,33.1,18.3,29.87,North,355,3.0,6.0,54,0.00,,---,0.01,127.00,VWS V14.00,2013-01-01 19:20:00,
2013-01-01 14:25:00,33.1,19.1,29.87,NNW,329,2.0,7.0,56,0.00,,---,0.01,116.00,VWS V14.00,2013-01-01 19:25:00,
2013-01-01 14:30:00,32.9,18.5,29.87,WNW,294,3.0,9.0,55,0.00,,---,0.01,113.00,VWS V14.00,2013-01-01 19:30:00,
2013-01-01 14:35:00,32.9,18.9,29.88,WNW,298,2.0,9.0,56,0.00,,---,0.01,116.00,VWS V14.00,2013-01-01 19:35:00,
2013-01-01 14:40:00,32.8,19.3,29.87,NW,325,3.0,4.0,57,0.00,,---,0.01,102.00,VWS V14.00,2013-01-01 19:40:00,
2013-01-01 14:45:00,32.8,19.7,29.89,NNW,347,5.0,9.0,58,0.00,,---,0.01,107.00,VWS V14.00,2013-01-01 19:45:00,
2013-01-01 14:50:00,32.5,18.6,29.89,NW,314,9.0,10.0,56,0.00,,---,0.01,120.00,VWS V14.00,2013-01-01 19:50:00,
2013-01-01 14:55:00,32.4,19.3,29.88,WNW,300,5.0,5.0,58,0.00,,---,0.01,109.00,VWS V14.00,2013-01-01 19:55:00,
2013-01-01 15:00:00,32.2,19.5,29.89,NW,319,3.0,7.0,59,0.00,,---,0.01,98.00,VWS V14.00,2013-01-01 20:00:00,
2013-01-01 15:05:00,32.1,19.0,29.89,NW,304,4.0,7.0,58,0.00,,---,0.01,102.00,VWS V14.00,2013-01-01 20:05:00,
2013-01-01 15:10:00,31.8,19.1,29.89,NNW,331,9.0,11.0,59,0.00,,---,0.01,86.00,VWS V14.00,2013-01-01 20:10:00,
2013-01-01 15:15:00,31.3,18.2,29.89,NW,319,7.0,12.0,58,0.00,,---,0.01,72.00,VWS V14.00,2013-01-01 20:15:00,
2013-01-01 15:20:00,31.0,18.4,29.89,NW,314,11.0,12.0,59,0.00,,---,0.01,76.00,VWS V14.00,2013-01-01 20:20:00,
2013-01-01 15:25:00,30.9,18.3,29.89,WNW,298,5.0,5.0,59,0.00,,---,0.01,77.00,VWS V14.00,2013-01-01 20:25:00,
2013-01-01 15:30:00,30.9,18.7,29.90,NW,305,3.0,7.0,60,0.00,,---,0.01,79.00,VWS V14.00,2013-01-01 20:30:00,
2013-01-01 15:35:00,30.9,18.7,29.90,NW,326,5.0,8.0,60,0.00,,---,0.01,70.00,VWS V14.00,2013-01-01 20:35:00,
2013-01-01 15:40:00,30.7,18.1,29.90,NNW,331,5.0,5.0,59,0.00,,---,0.01,70.00,VWS V14.00,2013-01-01 20:40:00,
2013-01-01 15:45:00,30.4,18.6,29.90,NNW,336,6.0,11.0,61,0.00,,---,0.01,47.00,VWS V14.00,2013-01-01 20:45:00,
2013-01-01 15:50:00,30.3,18.1,29.91,North,10,5.0,6.0,60,0.00,,---,0.01,42.00,VWS V14.00,2013-01-01 20:50:00,
2013-01-01 15:55:00,30.1,17.9,29.91,NNW,345,2.0,6.0,60,0.00,,---,0.01,37.00,VWS V14.00,2013-01-01 20:55:00,
2013-01-01 16:00:00,29.7,18.3,29.91,NNE,24,6.0,9.0,62,0.00,,---,0.01,30.00,VWS V14.00,2013-01-01 21:00:00,
2013-01-01 16:05:00,29.4,18.0,29.92,NW,316,4.0,12.0,62,0.00,,---,0.01,26.00,VWS V14.00,2013-01-01 21:05:00,
2013-01-01 16:10:00,29.1,17.7,29.93,WNW,300,4.0,6.0,62,0.00,,---,0.01,18.00,VWS V14.00,2013-01-01 21:10:00,
2013-01-01 16:15:00,29.0,17.6,29.93,WNW,295,9.0,10.0,62,0.00,,---,0.01,14.00,VWS V14.00,2013-01-01 21:15:00,
2013-01-01 16:20:00,28.8,17.4,29.92,NE,46,3.0,9.0,62,0.00,,---,0.01,9.00,VWS V14.00,2013-01-01 21:20:00,
2013-01-01 16:25:00,28.8,16.7,29.94,NNW,343,1.0,3.0,60,0.00,,---,0.01,7.00,VWS V14.00,2013-01-01 21:25:00,
2013-01-01 16:30:00,28.8,16.7,29.94,WNW,294,3.0,5.0,60,0.00,,---,0.01,0.00,VWS V14.00,2013-01-01 21:30:00,
2013-01-01 16:35:00,28.7,17.0,29.94,NW,316,2.0,4.0,61,0.00,,---,0.01,0.00,VWS V14.00,2013-01-01 21:35:00,
2013-01-01 16:40:00,28.5,16.8,29.94,NW,323,3.0,3.0,61,0.00,,---,0.01,0.00,VWS V14.00,2013-01-01 21:40:00,
2013-01-01 16:45:00,28.2,16.1,29.95,NW,324,1.0,13.0,60,0.00,,---,0.01,0.00,VWS V14.00,2013-01-01 21:45:00,
2013-01-01 16:50:00,28.1,15.6,29.96,NE,42,11.0,13.0,59,0.00,,---,0.01,0.00,VWS V14.00,2013-01-01 21:50:00,
2013-01-01 16:55:00,27.9,15.4,29.96,NNW,336,6.0,10.0,59,0.00,,---,0.01,0.00,VWS V14.00,2013-01-01 21:55:00,
2013-01-01 17:00:00,27.8,15.4,29.95,NW,319,2.0,3.0,59,0.00,,---,0.01,0.00,VWS V14.00,2013-01-01 22:00:00,
2013-01-01 17:05:00,27.6,15.2,29.96,NW,325,3.0,3.0,59,0.00,,---,0.01,0.00,VWS V14.00,2013-01-01 22:05:00,
2013-01-01 17:10:00,27.6,15.2,29.95,NW,306,5.0,6.0,59,0.00,,---,0.01,0.00,VWS V14.00,2013-01-01 22:10:00,
2013-01-01 17:15:00,27.5,15.4,29.95,North,360,9.0,9.0,60,0.00,,---,0.01,0.00,VWS V14.00,2013-01-01 22:15:00,
2013-01-01 17:20:00,27.5,15.1,29.95,NNW,329,0.0,0.0,59,0.00,,---,0.01,0.00,VWS V14.00,2013-01-01 22:20:00,
2013-01-01 17:25:00,27.3,15.3,29.96,NW,315,3.0,4.0,60,0.00,,---,0.01,0.00,VWS V14.00,2013-01-01 22:25:00,
2013-01-01 17:30:00,27.2,14.8,29.96,NW,311,3.0,6.0,59,0.00,,---,0.01,0.00,VWS V14.00,2013-01-01 22:30:00,
2013-01-01 17:35:00,27.2,14.4,29.96,NW,324,6.0,10.0,58,0.00,,---,0.01,0.00,VWS V14.00,2013-01-01 22:35:00,
2013-01-01 17:40:00,27.3,13.7,29.95,WNW,284,6.0,10.0,56,0.00,,---,0.01,0.00,VWS V14.00,2013-01-01 22:40:00,
2013-01-01 17:46:00,27.2,13.6,29.97,WNW,302,6.0,14.0,56,0.00,,---,0.01,0.00,VWS V14.00,2013-01-01 22:46:00,
2013-01-01 17:51:00,27.2,13.6,29.98,NW,312,5.0,7.0,56,0.00,,---,0.01,0.00,VWS V14.00,2013-01-01 22:51:00,
2013-01-01 17:56:00,27.0,13.4,29.98,NNW,338,3.0,6.0,56,0.00,,---,0.01,0.00,VWS V14.00,2013-01-01 22:56:00,
2013-01-01 18:01:00,26.9,13.3,29.98,NNE,26,4.0,12.0,56,0.00,,---,0.01,0.00,VWS V14.00,2013-01-01 23:01:00,
2013-01-01 18:06:00,26.9,13.3,29.98,NW,323,4.0,7.0,56,0.00,,---,0.01,0.00,VWS V14.00,2013-01-01 23:06:00,
2013-01-01 18:11:00,26.7,13.1,29.98,NW,313,3.0,4.0,56,0.00,,---,0.01,0.00,VWS V14.00,2013-01-01 23:11:00,
2013-01-01 18:16:00,26.6,13.0,29.98,NW,315,5.0,6.0,56,0.00,,---,0.01,0.00,VWS V14.00,2013-01-01 23:16:00,
2013-01-01 18:21:00,26.6,13.0,29.99,NW,320,6.0,7.0,56,0.00,,---,0.01,0.00,VWS V14.00,2013-01-01 23:21:00,
2013-01-01 18:26:00,26.4,12.8,29.99,NW,325,4.0,4.0,56,0.00,,---,0.01,0.00,VWS V14.00,2013-01-01 23:26:00,
2013-01-01 18:31:00,26.4,12.8,29.99,West,270,3.0,3.0,56,0.00,,---,0.01,0.00,VWS V14.00,2013-01-01 23:31:00,
2013-01-01 18:36:00,26.3,13.1,29.99,NW,312,0.0,6.0,57,0.00,,---,0.01,0.00,VWS V14.00,2013-01-01 23:36:00,
2013-01-01 18:41:00,26.1,12.6,29.99,North,5,4.0,4.0,56,0.00,,---,0.01,0.00,VWS V14.00,2013-01-01 23:41:00,
2013-01-01 18:46:00,26.1,12.2,29.99,WNW,300,5.0,12.0,55,0.00,,---,0.01,0.00,VWS V14.00,2013-01-01 23:46:00,
2013-01-01 18:51:00,26.1,12.6,29.99,NW,320,5.0,9.0,56,0.00,,---,0.01,0.00,VWS V14.00,2013-01-01 23:51:00,
2013-01-01 18:56:00,26.1,11.7,29.99,WNW,288,3.0,6.0,54,0.00,,---,0.01,0.00,VWS V14.00,2013-01-01 23:56:00,
2013-01-01 19:01:00,26.1,11.7,29.99,WNW,291,4.0,9.0,54,0.00,,---,0.01,0.00,VWS V14.00,2013-01-02 00:01:00,
2013-01-01 19:06:00,26.0,11.6,29.99,NW,306,5.0,17.0,54,0.00,,---,0.01,0.00,VWS V14.00,2013-01-02 00:06:00,
2013-01-01 19:11:00,26.0,12.1,29.99,NW,304,9.0,10.0,55,0.00,,---,0.01,0.00,VWS V14.00,2013-01-02 00:11:00,
2013-01-01 19:16:00,25.8,11.5,30.00,WNW,290,5.0,13.0,54,0.00,,---,0.01,0.00,VWS V14.00,2013-01-02 00:16:00,
2013-01-01 19:21:00,25.7,11.8,30.00,North,355,4.0,10.0,55,0.00,,---,0.01,0.00,VWS V14.00,2013-01-02 00:21:00,
2013-01-01 19:26:00,25.6,11.7,30.01,NW,304,2.0,3.0,55,0.00,,---,0.01,0.00,VWS V14.00,2013-01-02 00:26:00,
2013-01-01 19:31:00,25.4,11.9,30.01,WNW,297,7.0,10.0,56,0.00,,---,0.01,0.00,VWS V14.00,2013-01-02 00:31:00,
2013-01-01 19:36:00,25.3,11.8,30.01,NNW,334,5.0,11.0,56,0.00,,---,0.01,0.00,VWS V14.00,2013-01-02 00:36:00,
2013-01-01 19:41:00,25.1,10.4,30.02,NNW,342,6.0,10.0,53,0.00,,---,0.01,0.00,VWS V14.00,2013-01-02 00:41:00,
2013-01-01 19:46:00,25.1,10.4,30.02,NNW,342,3.0,9.0,53,0.00,,---,0.01,0.00,VWS V14.00,2013-01-02 00:46:00,
2013-01-01 19:51:00,25.1,10.4,30.01,NW,304,4.0,9.0,53,0.00,,---,0.01,0.00,VWS V14.00,2013-01-02 00:51:00,
2013-01-01 19:56:00,25.0,11.1,30.01,North,9,3.0,10.0,55,0.00,,---,0.01,0.00,VWS V14.00,2013-01-02 00:56:00,
2013-01-01 20:01:00,24.7,11.2,30.01,NW,317,3.0,5.0,56,0.00,,---,0.01,0.00,VWS V14.00,2013-01-02 01:01:00,
2013-01-01 20:06:00,24.4,11.0,30.01,North,360,2.0,3.0,56,0.00,,---,0.01,0.00,VWS V14.00,2013-01-02 01:06:00,
2013-01-01 20:11:00,24.2,11.2,30.01,NNW,333,10.0,11.0,57,0.00,,---,0.01,0.00,VWS V14.00,2013-01-02 01:11:00,
2013-01-01 20:16:00,24.1,10.3,30.01,NNW,336,10.0,10.0,55,0.00,,---,0.01,0.00,VWS V14.00,2013-01-02 01:16:00,
2013-01-01 20:21:00,23.9,10.1,30.01,NW,313,11.0,11.0,55,0.00,,---,0.01,0.00,VWS V14.00,2013-01-02 01:21:00,
2013-01-01 20:26:00,23.8,10.4,30.01,WNW,292,10.0,11.0,56,0.00,,---,0.01,0.00,VWS V14.00,2013-01-02 01:26:00,
2013-01-01 20:31:00,23.6,9.8,30.01,NNW,338,6.0,6.0,55,0.00,,---,0.01,0.00,VWS V14.00,2013-01-02 01:31:00,
2013-01-01 20:36:00,23.5,9.3,30.02,WNW,286,10.0,10.0,54,0.00,,---,0.01,0.00,VWS V14.00,2013-01-02 01:36:00,
2013-01-01 20:41:00,23.3,9.9,30.02,NW,304,2.0,4.0,56,0.00,,---,0.01,0.00,VWS V14.00,2013-01-02 01:41:00,
2013-01-01 20:46:00,23.2,9.8,30.02,NW,305,5.0,11.0,56,0.00,,---,0.01,0.00,VWS V14.00,2013-01-02 01:46:00,
2013-01-01 20:51:00,23.0,9.2,30.02,NW,319,2.0,6.0,55,0.00,,---,0.01,0.00,VWS V14.00,2013-01-02 01:51:00,
2013-01-01 20:56:00,22.9,9.2,30.03,NW,312,1.0,1.0,55,0.00,,---,0.01,0.00,VWS V14.00,2013-01-02 01:56:00,
2013-01-01 21:01:00,22.5,8.8,30.03,NNW,327,1.0,1.0,55,0.00,,---,0.01,0.00,VWS V14.00,2013-01-02 02:01:00,
2013-01-01 21:06:00,22.4,8.7,30.04,NW,313,0.0,1.0,55,0.00,,---,0.01,0.00,VWS V14.00,2013-01-02 02:06:00,
2013-01-01 21:11:00,22.4,8.7,30.04,NW,323,2.0,2.0,55,0.00,,---,0.01,0.00,VWS V14.00,2013-01-02 02:11:00,
2013-01-01 21:16:00,22.2,8.1,30.04,NNW,338,7.0,9.0,54,0.00,,---,0.01,0.00,VWS V14.00,2013-01-02 02:16:00,
2013-01-01 21:21:00,22.2,7.7,30.04,NNW,333,2.0,7.0,53,0.00,,---,0.01,0.00,VWS V14.00,2013-01-02 02:21:00,
2013-01-01 21:26:00,22.1,7.6,30.03,NW,323,2.0,5.0,53,0.00,,---,0.01,0.00,VWS V14.00,2013-01-02 02:26:00,
2013-01-01 21:31:00,22.1,7.6,30.04,WNW,296,4.0,6.0,53,0.00,,---,0.01,0.00,VWS V14.00,2013-01-02 02:31:00,
2013-01-01 21:36:00,21.8,7.3,30.04,WNW,294,3.0,10.0,53,0.00,,---,0.01,0.00,VWS V14.00,2013-01-02 02:36:00,
2013-01-01 21:41:00,21.6,7.5,30.04,NW,324,3.0,4.0,54,0.00,,---,0.01,0.00,VWS V14.00,2013-01-02 02:41:00,
2013-01-01 21:46:00,21.4,7.3,30.05,NW,317,2.0,4.0,54,0.00,,---,0.01,0.00,VWS V14.00,2013-01-02 02:46:00,
2013-01-01 21:51:00,21.1,7.1,30.04,NW,309,5.0,5.0,54,0.00,,---,0.01,0.00,VWS V14.00,2013-01-02 02:51:00,
2013-01-01 21:56:00,21.0,6.6,30.04,NW,306,4.0,6.0,53,0.00,,---,0.01,0.00,VWS V14.00,2013-01-02 02:56:00,
2013-01-01 22:01:00,21.0,6.6,30.04,WNW,293,2.0,4.0,53,0.00,,---,0.01,0.00,VWS V14.00,2013-01-02 03:01:00,
2013-01-01 22:06:00,20.8,6.8,30.05,WNW,296,2.0,5.0,54,0.00,,---,0.01,0.00,VWS V14.00,2013-01-02 03:06:00,
2013-01-01 22:11:00,20.6,6.2,30.05,WNW,300,0.0,5.0,53,0.00,,---,0.01,0.00,VWS V14.00,2013-01-02 03:11:00,
2013-01-01 22:16:00,20.5,6.1,30.05,WNW,300,0.0,0.0,53,0.00,,---,0.01,0.00,VWS V14.00,2013-01-02 03:16:00,
2013-01-01 22:21:00,20.3,5.9,30.06,WNW,300,0.0,1.0,53,0.00,,---,0.01,0.00,VWS V14.00,2013-01-02 03:21:00,
2013-01-01 22:26:00,20.2,6.2,30.06,WNW,300,0.0,0.0,54,0.00,,---,0.01,0.00,VWS V14.00,2013-01-02 03:26:00,
2013-01-01 22:31:00,20.0,5.6,30.06,WNW,300,0.0,1.0,53,0.00,,---,0.01,0.00,VWS V14.00,2013-01-02 03:31:00,
2013-01-01 22:36:00,19.9,5.9,30.06,WNW,300,2.0,2.0,54,0.00,,---,0.01,0.00,VWS V14.00,2013-01-02 03:36:00,
2013-01-01 22:41:00,19.7,5.3,30.07,WNW,300,0.0,2.0,53,0.00,,---,0.01,0.00,VWS V14.00,2013-01-02 03:41:00,
2013-01-01 22:46:00,19.5,5.6,30.07,WNW,300,0.0,0.0,54,0.00,,---,0.01,0.00,VWS V14.00,2013-01-02 03:46:00,
2013-01-01 22:51:00,19.4,5.9,30.07,WNW,299,2.0,4.0,55,0.00,,---,0.01,0.00,VWS V14.00,2013-01-02 03:51:00,
2013-01-01 22:56:00,19.2,5.7,30.07,WNW,298,4.0,5.0,55,0.00,,---,0.01,0.00,VWS V14.00,2013-01-02 03:56:00,
2013-01-01 23:01:00,19.1,6.0,30.07,WNW,299,0.0,2.0,56,0.00,,---,0.01,0.00,VWS V14.00,2013-01-02 04:01:00,
2013-01-01 23:06:00,18.9,5.8,30.07,NW,307,3.0,3.0,56,0.00,,---,0.01,0.00,VWS V14.00,2013-01-02 04:06:00,
2013-01-01 23:11:00,18.9,5.8,30.07,NW,319,3.0,4.0,56,0.00,,---,0.01,0.00,VWS V14.00,2013-01-02 04:11:00,
2013-01-01 23:16:00,18.9,5.8,30.07,NW,306,0.0,5.0,56,0.00,,---,0.00,0.00,VWS V14.00,2013-01-02 04:16:00,
2013-01-01 23:21:00,18.9,5.8,30.08,NNW,339,5.0,5.0,56,0.00,,---,0.00,0.00,VWS V14.00,2013-01-02 04:21:00,
2013-01-01 23:26:00,18.9,5.4,30.07,NW,315,1.0,5.0,55,0.00,,---,0.00,0.00,VWS V14.00,2013-01-02 04:26:00,
2013-01-01 23:31:00,18.9,5.4,30.07,NW,319,3.0,9.0,55,0.00,,---,0.00,0.00,VWS V14.00,2013-01-02 04:31:00,
2013-01-01 23:36:00,18.8,5.3,30.08,NW,320,6.0,9.0,55,0.00,,---,0.00,0.00,VWS V14.00,2013-01-02 04:36:00,
2013-01-01 23:41:00,18.8,5.3,30.07,NW,315,4.0,9.0,55,0.00,,---,0.00,0.00,VWS V14.00,2013-01-02 04:41:00,
2013-01-01 23:46:00,18.8,5.3,30.07,NW,314,7.0,9.0,55,0.00,,---,0.00,0.00,VWS V14.00,2013-01-02 04:46:00,
2013-01-01 23:51:00,18.8,5.3,30.07,NW,319,1.0,4.0,55,0.00,,---,0.00,0.00,VWS V14.00,2013-01-02 04:51:00,
2013-01-01 23:56:00,18.6,5.5,30.07,WNW,295,11.0,12.0,56,0.00,,---,0.00,0.00,VWS V14.00,2013-01-02 04:56:00,